Aeroporto :
LOGIN :

Iscrizione | Disclaimer

   EN    FR    IT 

 










Sommario :    VFR   VFR Marginale   IFR   IFR Intensivo   IFR Molto Intensivo
Visibilità : 
Base nubi : 
>= 8 km
>= 3000ft
5 / 8 km
1000 / 3000 ft
1500m / 5 km
500 / 1000 ft
800 / 1500m
200 / 500 ft
< 800m
< 200 ft
Simboli :   Temporali  Nebbia  Neve Forte  Precipitazioni Forti  Vento > 20 kt
SIGMETs :   Varie  Temporali  Ghiacco  Turbolenza  Onda orograficha  Ceneri Vulcaniche






- Altitudine del aeroporto : 416 ft
- Codice IATA : OVD


LEAS - Asturias

ULTIMO METAR :
  • 261030Z 27011G21KT 230V320 9999 -RA SCT025 BKN040 11/06 Q1025 TEMPO 3000 RA

METARs OBSOLETI :
  • 261000Z 26009KT 230V290 9999 SCT025 SCT050 11/07 Q1024 TEMPO 3000 RA
  • 260930Z 27010KT 9999 -DZ FEW020 BKN040 10/06 Q1024 TEMPO 3000 RA
  • 260900Z 27012KT 9000 -DZ FEW020 BKN040 09/06 Q1024 TEMPO 3000 RA
  • 260830Z 28015KT 260V330 8000 -DZ FEW020 BKN030 09/06 Q1024 TEMPO 3000 RA
  • 260800Z 26010KT 230V290 9999 FEW025 BKN040 10/05 Q1023 TEMPO 3000 DZ

TAF TAF LEAS
Valido dal 26 a 09 ore il 27 a 09 ore UTC


260800Z 2609/2709 27009KT 9999 SCT015 BKN025 TX13/2615Z TN10/2705Z
TEMPO 2609/2621 30015G25KT
TEMPO 2609/2615 3000 SHRA BKN010 SCT025TCU
TEMPO 2623/2709 26015G25KT



MetMap, La meteo Aeronautica in un colpo d'occhio ! - Copyright ORBIFLY Dicembre 2007 - Disclaimer

ORBIFLY MET'MAP TEAM :

Programmazione e sviluppo : Alexandra Zaïnal
Concezione : Baudouin d'Aumeries
Aiuto per la programmazione : Marc-Olivier Méhu
Supporto tecnico e logistico : Manuel Goepfert
Aiuto per la traduzione : Arnaldo La Scala

Contatto : metmap@orbifly.com




FONTI E CREDITI :

   NOAA